sensor_id;sensor_type;location;lat;lon;timestamp;temperature;humidity
48019;DHT22;33786;48.690;9.562;2022-08-02T00:00:29;17.10;99.90
48019;DHT22;33786;48.690;9.562;2022-08-02T00:02:56;17.00;99.90
48019;DHT22;33786;48.690;9.562;2022-08-02T00:05:22;16.90;99.90
48019;DHT22;33786;48.690;9.562;2022-08-02T00:07:49;16.80;99.90
48019;DHT22;33786;48.690;9.562;2022-08-02T00:10:16;16.80;99.90
48019;DHT22;33786;48.690;9.562;2022-08-02T00:12:42;16.70;99.90
48019;DHT22;33786;48.690;9.562;2022-08-02T00:15:09;16.70;99.90
48019;DHT22;33786;48.690;9.562;2022-08-02T00:17:42;16.70;99.90
48019;DHT22;33786;48.690;9.562;2022-08-02T00:20:09;16.60;99.90
48019;DHT22;33786;48.690;9.562;2022-08-02T00:22:36;16.60;99.90
48019;DHT22;33786;48.690;9.562;2022-08-02T00:25:03;16.60;99.90
48019;DHT22;33786;48.690;9.562;2022-08-02T00:27:29;16.50;99.90
48019;DHT22;33786;48.690;9.562;2022-08-02T00:29:56;16.50;99.90
48019;DHT22;33786;48.690;9.562;2022-08-02T00:32:23;16.50;99.90
48019;DHT22;33786;48.690;9.562;2022-08-02T00:34:50;16.50;99.90
48019;DHT22;33786;48.690;9.562;2022-08-02T00:37:16;16.50;99.90
48019;DHT22;33786;48.690;9.562;2022-08-02T00:39:43;16.40;99.90
48019;DHT22;33786;48.690;9.562;2022-08-02T00:42:10;16.40;99.90
48019;DHT22;33786;48.690;9.562;2022-08-02T00:44:39;16.40;99.90
48019;DHT22;33786;48.690;9.562;2022-08-02T00:47:06;16.40;99.90
48019;DHT22;33786;48.690;9.562;2022-08-02T00:49:33;16.40;99.90
48019;DHT22;33786;48.690;9.562;2022-08-02T00:52:00;16.40;99.90
48019;DHT22;33786;48.690;9.562;2022-08-02T00:54:27;16.40;99.90
48019;DHT22;33786;48.690;9.562;2022-08-02T00:56:53;16.30;99.90
48019;DHT22;33786;48.690;9.562;2022-08-02T00:59:20;16.30;99.90
48019;DHT22;33786;48.690;9.562;2022-08-02T01:01:47;16.30;99.90
48019;DHT22;33786;48.690;9.562;2022-08-02T01:04:26;16.30;99.90
48019;DHT22;33786;48.690;9.562;2022-08-02T01:07:02;16.30;99.90
48019;DHT22;33786;48.690;9.562;2022-08-02T01:09:41;16.30;99.90
48019;DHT22;33786;48.690;9.562;2022-08-02T01:12:08;16.30;99.90
48019;DHT22;33786;48.690;9.562;2022-08-02T01:14:36;16.30;99.90
48019;DHT22;33786;48.690;9.562;2022-08-02T01:17:11;16.40;99.90
48019;DHT22;33786;48.690;9.562;2022-08-02T01:23:21;16.50;99.90
48019;DHT22;33786;48.690;9.562;2022-08-02T01:28:19;16.50;99.90
48019;DHT22;33786;48.690;9.562;2022-08-02T01:30:48;16.40;99.90
48019;DHT22;33786;48.690;9.562;2022-08-02T01:33:19;16.40;99.90
48019;DHT22;33786;48.690;9.562;2022-08-02T01:35:46;16.30;99.90
48019;DHT22;33786;48.690;9.562;2022-08-02T01:38:24;16.40;99.90
48019;DHT22;33786;48.690;9.562;2022-08-02T01:40:53;16.40;99.90
48019;DHT22;33786;48.690;9.562;2022-08-02T01:43:20;16.40;99.90
48019;DHT22;33786;48.690;9.562;2022-08-02T01:45:48;16.50;99.90
48019;DHT22;33786;48.690;9.562;2022-08-02T01:48:15;16.50;99.90
48019;DHT22;33786;48.690;9.562;2022-08-02T01:50:42;16.50;99.90
48019;DHT22;33786;48.690;9.562;2022-08-02T01:53:09;16.50;99.90
48019;DHT22;33786;48.690;9.562;2022-08-02T01:55:44;16.50;99.90
48019;DHT22;33786;48.690;9.562;2022-08-02T01:58:25;16.60;99.90
48019;DHT22;33786;48.690;9.562;2022-08-02T02:00:52;16.60;99.90
48019;DHT22;33786;48.690;9.562;2022-08-02T02:03:19;16.60;99.90
48019;DHT22;33786;48.690;9.562;2022-08-02T02:05:47;16.70;99.90
48019;DHT22;33786;48.690;9.562;2022-08-02T02:08:15;16.70;99.90
48019;DHT22;33786;48.690;9.562;2022-08-02T02:10:54;16.80;99.90
48019;DHT22;33786;48.690;9.562;2022-08-02T02:13:21;16.80;99.90
48019;DHT22;33786;48.690;9.562;2022-08-02T02:16:00;16.80;99.90
48019;DHT22;33786;48.690;9.562;2022-08-02T02:18:28;16.80;99.90
48019;DHT22;33786;48.690;9.562;2022-08-02T02:20:56;16.80;99.90
48019;DHT22;33786;48.690;9.562;2022-08-02T02:23:23;16.90;99.90
48019;DHT22;33786;48.690;9.562;2022-08-02T02:25:52;16.90;99.90
48019;DHT22;33786;48.690;9.562;2022-08-02T02:28:25;16.80;99.90
48019;DHT22;33786;48.690;9.562;2022-08-02T02:31:11;16.80;99.90
48019;DHT22;33786;48.690;9.562;2022-08-02T02:33:40;16.70;99.90
48019;DHT22;33786;48.690;9.562;2022-08-02T02:36:08;16.80;99.90
48019;DHT22;33786;48.690;9.562;2022-08-02T02:38:36;16.70;99.90
48019;DHT22;33786;48.690;9.562;2022-08-02T02:41:04;16.70;99.90
48019;DHT22;33786;48.690;9.562;2022-08-02T02:43:32;16.70;99.90
48019;DHT22;33786;48.690;9.562;2022-08-02T02:46:00;16.70;99.90
48019;DHT22;33786;48.690;9.562;2022-08-02T02:48:29;16.70;99.90
48019;DHT22;33786;48.690;9.562;2022-08-02T02:50:56;16.70;99.90
48019;DHT22;33786;48.690;9.562;2022-08-02T02:53:23;16.60;99.90
48019;DHT22;33786;48.690;9.562;2022-08-02T02:55:50;16.60;99.90
48019;DHT22;33786;48.690;9.562;2022-08-02T02:58:28;16.60;99.90
48019;DHT22;33786;48.690;9.562;2022-08-02T03:00:55;16.50;99.90
48019;DHT22;33786;48.690;9.562;2022-08-02T03:03:42;16.50;99.90
48019;DHT22;33786;48.690;9.562;2022-08-02T03:06:09;16.40;99.90
48019;DHT22;33786;48.690;9.562;2022-08-02T03:08:41;16.40;99.90
48019;DHT22;33786;48.690;9.562;2022-08-02T03:11:08;16.40;99.90
48019;DHT22;33786;48.690;9.562;2022-08-02T03:13:35;16.30;99.90
48019;DHT22;33786;48.690;9.562;2022-08-02T03:16:03;16.30;99.90
48019;DHT22;33786;48.690;9.562;2022-08-02T03:18:33;16.30;99.90
48019;DHT22;33786;48.690;9.562;2022-08-02T03:21:01;16.30;99.90
48019;DHT22;33786;48.690;9.562;2022-08-02T03:23:28;16.30;99.90
48019;DHT22;33786;48.690;9.562;2022-08-02T03:25:55;16.20;99.90
48019;DHT22;33786;48.690;9.562;2022-08-02T03:28:22;16.20;99.90
48019;DHT22;33786;48.690;9.562;2022-08-02T03:30:49;16.20;99.90
48019;DHT22;33786;48.690;9.562;2022-08-02T03:33:16;16.20;99.90
48019;DHT22;33786;48.690;9.562;2022-08-02T03:35:43;16.20;99.90
48019;DHT22;33786;48.690;9.562;2022-08-02T03:38:11;16.20;99.90
48019;DHT22;33786;48.690;9.562;2022-08-02T03:40:39;16.20;99.90
48019;DHT22;33786;48.690;9.562;2022-08-02T03:43:06;16.20;99.90
48019;DHT22;33786;48.690;9.562;2022-08-02T03:45:34;16.30;99.90
48019;DHT22;33786;48.690;9.562;2022-08-02T03:48:01;16.20;99.90
48019;DHT22;33786;48.690;9.562;2022-08-02T03:50:48;16.20;99.90
48019;DHT22;33786;48.690;9.562;2022-08-02T03:53:17;16.30;99.90
48019;DHT22;33786;48.690;9.562;2022-08-02T03:55:46;16.40;99.90
48019;DHT22;33786;48.690;9.562;2022-08-02T03:58:19;16.40;99.90
48019;DHT22;33786;48.690;9.562;2022-08-02T04:00:45;16.50;99.90
48019;DHT22;33786;48.690;9.562;2022-08-02T04:03:13;16.50;99.90
48019;DHT22;33786;48.690;9.562;2022-08-02T04:05:45;16.60;99.90
48019;DHT22;33786;48.690;9.562;2022-08-02T04:08:30;16.60;99.90
48019;DHT22;33786;48.690;9.562;2022-08-02T04:11:03;16.80;99.90
48019;DHT22;33786;48.690;9.562;2022-08-02T04:13:48;16.90;99.90
48019;DHT22;33786;48.690;9.562;2022-08-02T04:16:27;16.90;99.90
48019;DHT22;33786;48.690;9.562;2022-08-02T04:18:55;16.90;99.90
48019;DHT22;33786;48.690;9.562;2022-08-02T04:21:23;16.90;99.90
48019;DHT22;33786;48.690;9.562;2022-08-02T04:23:51;16.90;99.90
48019;DHT22;33786;48.690;9.562;2022-08-02T04:26:18;16.90;99.90
48019;DHT22;33786;48.690;9.562;2022-08-02T04:28:53;17.00;99.90
48019;DHT22;33786;48.690;9.562;2022-08-02T04:31:22;17.10;99.90
48019;DHT22;33786;48.690;9.562;2022-08-02T04:33:49;17.10;99.90
48019;DHT22;33786;48.690;9.562;2022-08-02T04:36:16;17.00;99.90
48019;DHT22;33786;48.690;9.562;2022-08-02T04:38:57;17.20;99.90
48019;DHT22;33786;48.690;9.562;2022-08-02T04:41:35;17.20;99.90
48019;DHT22;33786;48.690;9.562;2022-08-02T04:44:06;17.30;99.90
48019;DHT22;33786;48.690;9.562;2022-08-02T04:46:33;17.40;99.90
48019;DHT22;33786;48.690;9.562;2022-08-02T04:49:01;17.40;99.90
48019;DHT22;33786;48.690;9.562;2022-08-02T04:51:33;17.40;99.90
48019;DHT22;33786;48.690;9.562;2022-08-02T04:54:04;17.40;99.90
48019;DHT22;33786;48.690;9.562;2022-08-02T04:56:35;17.40;99.90
48019;DHT22;33786;48.690;9.562;2022-08-02T04:59:03;17.30;99.90
48019;DHT22;33786;48.690;9.562;2022-08-02T05:01:29;17.30;99.90
48019;DHT22;33786;48.690;9.562;2022-08-02T05:03:56;17.40;99.90
48019;DHT22;33786;48.690;9.562;2022-08-02T05:06:23;17.50;99.90
48019;DHT22;33786;48.690;9.562;2022-08-02T05:08:50;17.50;99.90
48019;DHT22;33786;48.690;9.562;2022-08-02T05:11:19;17.60;99.90
48019;DHT22;33786;48.690;9.562;2022-08-02T05:13:45;17.80;99.90
48019;DHT22;33786;48.690;9.562;2022-08-02T05:16:25;17.90;99.90
48019;DHT22;33786;48.690;9.562;2022-08-02T05:19:00;18.10;99.90
48019;DHT22;33786;48.690;9.562;2022-08-02T05:21:28;18.40;99.90
48019;DHT22;33786;48.690;9.562;2022-08-02T05:23:55;18.30;99.90
48019;DHT22;33786;48.690;9.562;2022-08-02T05:26:22;18.30;99.90
48019;DHT22;33786;48.690;9.562;2022-08-02T05:28:49;18.40;99.90
48019;DHT22;33786;48.690;9.562;2022-08-02T05:31:15;18.40;99.90
48019;DHT22;33786;48.690;9.562;2022-08-02T05:33:42;18.60;99.90
48019;DHT22;33786;48.690;9.562;2022-08-02T05:36:09;18.80;99.90
48019;DHT22;33786;48.690;9.562;2022-08-02T05:38:36;18.70;99.90
48019;DHT22;33786;48.690;9.562;2022-08-02T05:41:03;18.60;99.90
48019;DHT22;33786;48.690;9.562;2022-08-02T05:43:30;18.50;99.90
48019;DHT22;33786;48.690;9.562;2022-08-02T05:45:57;18.50;99.90
48019;DHT22;33786;48.690;9.562;2022-08-02T05:48:23;18.70;99.90
48019;DHT22;33786;48.690;9.562;2022-08-02T05:51:03;19.00;99.90
48019;DHT22;33786;48.690;9.562;2022-08-02T05:56:08;19.60;99.90
48019;DHT22;33786;48.690;9.562;2022-08-02T05:58:39;19.80;99.90
48019;DHT22;33786;48.690;9.562;2022-08-02T06:01:08;19.80;99.90
48019;DHT22;33786;48.690;9.562;2022-08-02T06:03:38;19.70;99.90
48019;DHT22;33786;48.690;9.562;2022-08-02T06:06:12;19.70;99.90
48019;DHT22;33786;48.690;9.562;2022-08-02T06:08:44;19.80;99.90
48019;DHT22;33786;48.690;9.562;2022-08-02T06:11:17;19.90;99.90
48019;DHT22;33786;48.690;9.562;2022-08-02T06:13:46;20.00;99.90
48019;DHT22;33786;48.690;9.562;2022-08-02T06:16:13;20.50;99.90
48019;DHT22;33786;48.690;9.562;2022-08-02T06:18:40;20.70;99.90
48019;DHT22;33786;48.690;9.562;2022-08-02T06:21:07;20.70;99.90
48019;DHT22;33786;48.690;9.562;2022-08-02T06:23:56;20.80;99.90
48019;DHT22;33786;48.690;9.562;2022-08-02T06:26:25;21.10;99.90
48019;DHT22;33786;48.690;9.562;2022-08-02T06:28:52;21.40;99.90
48019;DHT22;33786;48.690;9.562;2022-08-02T06:31:19;21.60;99.90
48019;DHT22;33786;48.690;9.562;2022-08-02T06:33:46;21.90;99.90
48019;DHT22;33786;48.690;9.562;2022-08-02T06:41:38;26.90;98.70
48019;DHT22;33786;48.690;9.562;2022-08-02T06:44:08;27.60;96.30
48019;DHT22;33786;48.690;9.562;2022-08-02T06:46:55;27.40;95.40
48019;DHT22;33786;48.690;9.562;2022-08-02T06:49:38;28.50;92.90
48019;DHT22;33786;48.690;9.562;2022-08-02T06:52:28;29.80;90.60
48019;DHT22;33786;48.690;9.562;2022-08-02T06:54:59;31.50;85.00
48019;DHT22;33786;48.690;9.562;2022-08-02T06:57:26;32.20;82.80
48019;DHT22;33786;48.690;9.562;2022-08-02T06:59:53;33.40;77.10
48019;DHT22;33786;48.690;9.562;2022-08-02T07:02:20;33.40;76.80
48019;DHT22;33786;48.690;9.562;2022-08-02T07:04:47;33.10;76.60
48019;DHT22;33786;48.690;9.562;2022-08-02T07:07:14;33.50;74.60
48019;DHT22;33786;48.690;9.562;2022-08-02T07:09:41;34.00;74.50
48019;DHT22;33786;48.690;9.562;2022-08-02T07:12:30;33.90;74.10
48019;DHT22;33786;48.690;9.562;2022-08-02T07:14:58;34.20;73.10
48019;DHT22;33786;48.690;9.562;2022-08-02T07:17:25;33.80;73.10
48019;DHT22;33786;48.690;9.562;2022-08-02T07:19:52;33.50;74.00
48019;DHT22;33786;48.690;9.562;2022-08-02T07:22:19;34.60;71.50
48019;DHT22;33786;48.690;9.562;2022-08-02T07:24:49;34.60;70.40
48019;DHT22;33786;48.690;9.562;2022-08-02T07:27:15;34.40;70.40
48019;DHT22;33786;48.690;9.562;2022-08-02T07:29:42;34.00;70.90
48019;DHT22;33786;48.690;9.562;2022-08-02T07:32:19;34.40;69.80
48019;DHT22;33786;48.690;9.562;2022-08-02T07:34:46;35.00;68.60
48019;DHT22;33786;48.690;9.562;2022-08-02T07:37:22;34.80;69.00
48019;DHT22;33786;48.690;9.562;2022-08-02T07:40:10;34.90;68.20
48019;DHT22;33786;48.690;9.562;2022-08-02T07:42:43;35.40;68.00
48019;DHT22;33786;48.690;9.562;2022-08-02T07:45:10;35.40;66.90
48019;DHT22;33786;48.690;9.562;2022-08-02T07:47:38;36.20;66.50
48019;DHT22;33786;48.690;9.562;2022-08-02T07:50:06;35.60;66.60
48019;DHT22;33786;48.690;9.562;2022-08-02T07:52:33;37.30;64.20
48019;DHT22;33786;48.690;9.562;2022-08-02T07:55:00;37.90;62.00
48019;DHT22;33786;48.690;9.562;2022-08-02T07:57:26;38.70;61.30
48019;DHT22;33786;48.690;9.562;2022-08-02T07:59:53;37.90;61.00
48019;DHT22;33786;48.690;9.562;2022-08-02T08:02:20;37.10;60.60
48019;DHT22;33786;48.690;9.562;2022-08-02T08:04:46;37.30;62.60
48019;DHT22;33786;48.690;9.562;2022-08-02T08:07:13;36.80;62.10
48019;DHT22;33786;48.690;9.562;2022-08-02T08:09:40;37.30;61.80
48019;DHT22;33786;48.690;9.562;2022-08-02T08:12:10;37.00;61.00
48019;DHT22;33786;48.690;9.562;2022-08-02T08:14:38;35.70;64.10
48019;DHT22;33786;48.690;9.562;2022-08-02T08:17:05;36.00;62.80
48019;DHT22;33786;48.690;9.562;2022-08-02T08:19:32;35.80;62.80
48019;DHT22;33786;48.690;9.562;2022-08-02T08:22:18;36.10;65.00
48019;DHT22;33786;48.690;9.562;2022-08-02T08:24:45;35.80;63.60
48019;DHT22;33786;48.690;9.562;2022-08-02T08:27:11;36.00;64.60
48019;DHT22;33786;48.690;9.562;2022-08-02T08:29:41;33.70;65.40
48019;DHT22;33786;48.690;9.562;2022-08-02T08:32:08;33.40;66.00
48019;DHT22;33786;48.690;9.562;2022-08-02T08:34:42;33.30;68.10
48019;DHT22;33786;48.690;9.562;2022-08-02T08:37:09;32.70;68.30
48019;DHT22;33786;48.690;9.562;2022-08-02T08:39:47;32.20;70.10
48019;DHT22;33786;48.690;9.562;2022-08-02T08:42:27;31.50;70.40
48019;DHT22;33786;48.690;9.562;2022-08-02T08:44:54;31.80;70.10
48019;DHT22;33786;48.690;9.562;2022-08-02T08:47:22;31.90;71.20
48019;DHT22;33786;48.690;9.562;2022-08-02T08:49:50;31.90;72.60
48019;DHT22;33786;48.690;9.562;2022-08-02T08:52:19;31.40;71.20
48019;DHT22;33786;48.690;9.562;2022-08-02T08:54:49;30.70;74.10
48019;DHT22;33786;48.690;9.562;2022-08-02T08:57:16;30.40;75.70
48019;DHT22;33786;48.690;9.562;2022-08-02T08:59:45;30.20;77.20
48019;DHT22;33786;48.690;9.562;2022-08-02T09:02:12;30.10;74.70
48019;DHT22;33786;48.690;9.562;2022-08-02T09:04:48;30.10;76.60
48019;DHT22;33786;48.690;9.562;2022-08-02T09:07:21;30.30;77.80
48019;DHT22;33786;48.690;9.562;2022-08-02T09:09:48;30.30;73.40
48019;DHT22;33786;48.690;9.562;2022-08-02T09:12:15;30.20;75.20
48019;DHT22;33786;48.690;9.562;2022-08-02T09:14:42;29.90;76.00
48019;DHT22;33786;48.690;9.562;2022-08-02T09:17:09;30.40;76.00
48019;DHT22;33786;48.690;9.562;2022-08-02T09:19:38;30.30;73.40
48019;DHT22;33786;48.690;9.562;2022-08-02T09:22:12;30.40;75.50
48019;DHT22;33786;48.690;9.562;2022-08-02T09:27:14;30.40;76.70
48019;DHT22;33786;48.690;9.562;2022-08-02T09:29:44;30.40;73.40
48019;DHT22;33786;48.690;9.562;2022-08-02T09:32:32;30.90;75.30
48019;DHT22;33786;48.690;9.562;2022-08-02T09:35:11;31.30;75.00
48019;DHT22;33786;48.690;9.562;2022-08-02T09:37:37;31.10;72.40
48019;DHT22;33786;48.690;9.562;2022-08-02T09:40:04;31.20;74.60
48019;DHT22;33786;48.690;9.562;2022-08-02T09:42:33;31.40;74.60
48019;DHT22;33786;48.690;9.562;2022-08-02T09:45:00;31.30;71.20
48019;DHT22;33786;48.690;9.562;2022-08-02T09:47:28;31.50;74.00
48019;DHT22;33786;48.690;9.562;2022-08-02T09:49:56;31.10;74.10
48019;DHT22;33786;48.690;9.562;2022-08-02T09:52:27;30.80;74.00
48019;DHT22;33786;48.690;9.562;2022-08-02T09:55:08;30.50;72.00
48019;DHT22;33786;48.690;9.562;2022-08-02T09:57:36;30.10;73.40
48019;DHT22;33786;48.690;9.562;2022-08-02T10:00:07;29.80;75.00
48019;DHT22;33786;48.690;9.562;2022-08-02T10:03:04;29.60;76.60
48019;DHT22;33786;48.690;9.562;2022-08-02T10:05:53;29.80;76.50
48019;DHT22;33786;48.690;9.562;2022-08-02T10:08:29;29.50;76.20
48019;DHT22;33786;48.690;9.562;2022-08-02T10:10:59;29.50;77.50
48019;DHT22;33786;48.690;9.562;2022-08-02T10:13:35;29.70;76.20
48019;DHT22;33786;48.690;9.562;2022-08-02T10:16:02;29.80;73.40
48019;DHT22;33786;48.690;9.562;2022-08-02T10:18:29;29.70;75.20
48019;DHT22;33786;48.690;9.562;2022-08-02T10:21:09;30.00;73.70
48019;DHT22;33786;48.690;9.562;2022-08-02T10:23:38;29.70;72.60
48019;DHT22;33786;48.690;9.562;2022-08-02T10:26:06;29.70;73.10
48019;DHT22;33786;48.690;9.562;2022-08-02T10:28:33;29.40;72.10
48019;DHT22;33786;48.690;9.562;2022-08-02T10:31:00;29.30;72.30
48019;DHT22;33786;48.690;9.562;2022-08-02T10:33:30;29.80;75.30
48019;DHT22;33786;48.690;9.562;2022-08-02T10:35:59;30.10;72.40
48019;DHT22;33786;48.690;9.562;2022-08-02T10:38:33;30.50;69.50
48019;DHT22;33786;48.690;9.562;2022-08-02T10:41:00;30.50;74.00
48019;DHT22;33786;48.690;9.562;2022-08-02T10:49:05;29.90;72.50
48019;DHT22;33786;48.690;9.562;2022-08-02T10:54:26;29.40;74.80
48019;DHT22;33786;48.690;9.562;2022-08-02T10:56:54;29.30;73.30
48019;DHT22;33786;48.690;9.562;2022-08-02T11:01:52;29.30;75.70
48019;DHT22;33786;48.690;9.562;2022-08-02T11:05:13;29.60;71.00
48019;DHT22;33786;48.690;9.562;2022-08-02T11:09:40;29.70;71.50
48019;DHT22;33786;48.690;9.562;2022-08-02T11:12:08;29.80;71.50
48019;DHT22;33786;48.690;9.562;2022-08-02T11:14:36;30.10;68.70
48019;DHT22;33786;48.690;9.562;2022-08-02T11:19:31;29.90;71.00
48019;DHT22;33786;48.690;9.562;2022-08-02T11:22:12;29.70;68.50
48019;DHT22;33786;48.690;9.562;2022-08-02T11:24:45;29.50;67.00
48019;DHT22;33786;48.690;9.562;2022-08-02T11:27:17;29.00;71.90
48019;DHT22;33786;48.690;9.562;2022-08-02T11:29:47;29.50;74.30
48019;DHT22;33786;48.690;9.562;2022-08-02T11:32:16;29.50;69.90
48019;DHT22;33786;48.690;9.562;2022-08-02T11:34:48;29.20;70.50
48019;DHT22;33786;48.690;9.562;2022-08-02T11:39:54;30.00;69.70
48019;DHT22;33786;48.690;9.562;2022-08-02T11:42:21;30.20;71.60
48019;DHT22;33786;48.690;9.562;2022-08-02T11:44:48;30.60;70.10
48019;DHT22;33786;48.690;9.562;2022-08-02T11:47:14;30.70;70.20
48019;DHT22;33786;48.690;9.562;2022-08-02T11:49:41;30.60;71.20
48019;DHT22;33786;48.690;9.562;2022-08-02T11:52:10;30.70;71.40
48019;DHT22;33786;48.690;9.562;2022-08-02T11:54:38;30.40;68.90
48019;DHT22;33786;48.690;9.562;2022-08-02T11:57:13;30.30;66.80
48019;DHT22;33786;48.690;9.562;2022-08-02T11:59:47;30.40;68.10
48019;DHT22;33786;48.690;9.562;2022-08-02T12:02:14;30.70;68.00
48019;DHT22;33786;48.690;9.562;2022-08-02T12:04:41;30.30;66.70
48019;DHT22;33786;48.690;9.562;2022-08-02T12:07:09;30.30;69.00
48019;DHT22;33786;48.690;9.562;2022-08-02T12:09:36;30.10;67.20
48019;DHT22;33786;48.690;9.562;2022-08-02T12:12:06;30.30;67.70
48019;DHT22;33786;48.690;9.562;2022-08-02T12:14:33;30.30;66.10
48019;DHT22;33786;48.690;9.562;2022-08-02T12:17:07;30.30;67.40
48019;DHT22;33786;48.690;9.562;2022-08-02T12:19:52;30.60;66.00
48019;DHT22;33786;48.690;9.562;2022-08-02T12:22:22;30.80;67.90
48019;DHT22;33786;48.690;9.562;2022-08-02T12:24:53;31.00;67.10
48019;DHT22;33786;48.690;9.562;2022-08-02T12:27:30;31.20;65.50
48019;DHT22;33786;48.690;9.562;2022-08-02T12:30:01;31.30;68.00
48019;DHT22;33786;48.690;9.562;2022-08-02T12:32:29;31.30;65.40
48019;DHT22;33786;48.690;9.562;2022-08-02T12:34:59;31.20;63.10
48019;DHT22;33786;48.690;9.562;2022-08-02T12:37:26;31.10;64.10
48019;DHT22;33786;48.690;9.562;2022-08-02T12:39:53;31.00;65.20
48019;DHT22;33786;48.690;9.562;2022-08-02T12:42:20;30.80;65.50
48019;DHT22;33786;48.690;9.562;2022-08-02T12:44:56;30.70;64.10
48019;DHT22;33786;48.690;9.562;2022-08-02T12:47:24;30.50;65.20
48019;DHT22;33786;48.690;9.562;2022-08-02T12:50:18;30.80;65.80
48019;DHT22;33786;48.690;9.562;2022-08-02T12:52:46;30.50;65.90
48019;DHT22;33786;48.690;9.562;2022-08-02T12:55:17;30.20;66.80
48019;DHT22;33786;48.690;9.562;2022-08-02T12:57:55;30.20;64.60
48019;DHT22;33786;48.690;9.562;2022-08-02T13:00:24;30.40;64.50
48019;DHT22;33786;48.690;9.562;2022-08-02T13:02:51;30.60;63.00
48019;DHT22;33786;48.690;9.562;2022-08-02T13:05:18;30.60;63.90
48019;DHT22;33786;48.690;9.562;2022-08-02T13:07:45;30.30;66.70
48019;DHT22;33786;48.690;9.562;2022-08-02T13:10:11;30.40;66.60
48019;DHT22;33786;48.690;9.562;2022-08-02T13:12:38;30.70;66.50
48019;DHT22;33786;48.690;9.562;2022-08-02T13:15:06;30.50;62.80
48019;DHT22;33786;48.690;9.562;2022-08-02T13:17:52;30.60;65.80
48019;DHT22;33786;48.690;9.562;2022-08-02T13:20:19;30.30;64.80
48019;DHT22;33786;48.690;9.562;2022-08-02T13:22:47;30.40;65.50
48019;DHT22;33786;48.690;9.562;2022-08-02T13:25:19;30.50;64.10
48019;DHT22;33786;48.690;9.562;2022-08-02T13:27:49;30.20;59.80
48019;DHT22;33786;48.690;9.562;2022-08-02T13:30:16;30.30;61.90
48019;DHT22;33786;48.690;9.562;2022-08-02T13:32:43;30.40;61.70
48019;DHT22;33786;48.690;9.562;2022-08-02T13:35:09;30.70;60.70
48019;DHT22;33786;48.690;9.562;2022-08-02T13:37:44;31.00;59.80
48019;DHT22;33786;48.690;9.562;2022-08-02T13:40:13;30.90;59.20
48019;DHT22;33786;48.690;9.562;2022-08-02T13:42:48;30.60;57.40
48019;DHT22;33786;48.690;9.562;2022-08-02T13:45:15;30.70;60.20
48019;DHT22;33786;48.690;9.562;2022-08-02T13:47:42;30.80;60.00
48019;DHT22;33786;48.690;9.562;2022-08-02T13:50:29;30.80;59.20
48019;DHT22;33786;48.690;9.562;2022-08-02T13:52:56;30.80;57.40
48019;DHT22;33786;48.690;9.562;2022-08-02T13:55:23;30.80;60.00
48019;DHT22;33786;48.690;9.562;2022-08-02T13:57:49;30.80;60.40
48019;DHT22;33786;48.690;9.562;2022-08-02T14:00:19;31.00;60.80
48019;DHT22;33786;48.690;9.562;2022-08-02T14:03:02;31.00;60.20
48019;DHT22;33786;48.690;9.562;2022-08-02T14:05:29;31.00;58.30
48019;DHT22;33786;48.690;9.562;2022-08-02T14:08:13;30.70;57.90
48019;DHT22;33786;48.690;9.562;2022-08-02T14:10:42;30.80;58.50
48019;DHT22;33786;48.690;9.562;2022-08-02T14:13:09;30.70;59.40
48019;DHT22;33786;48.690;9.562;2022-08-02T14:15:36;30.90;59.30
48019;DHT22;33786;48.690;9.562;2022-08-02T14:18:03;30.70;58.10
48019;DHT22;33786;48.690;9.562;2022-08-02T14:20:29;30.60;57.20
48019;DHT22;33786;48.690;9.562;2022-08-02T14:22:56;30.40;60.10
48019;DHT22;33786;48.690;9.562;2022-08-02T14:25:23;30.30;59.90
48019;DHT22;33786;48.690;9.562;2022-08-02T14:27:50;30.20;60.30
48019;DHT22;33786;48.690;9.562;2022-08-02T14:30:16;30.30;57.60
48019;DHT22;33786;48.690;9.562;2022-08-02T14:32:43;30.30;58.40
48019;DHT22;33786;48.690;9.562;2022-08-02T14:35:10;30.20;56.90
48019;DHT22;33786;48.690;9.562;2022-08-02T14:37:37;30.00;57.60
48019;DHT22;33786;48.690;9.562;2022-08-02T14:40:03;30.10;59.20
48019;DHT22;33786;48.690;9.562;2022-08-02T14:42:30;30.30;58.60
48019;DHT22;33786;48.690;9.562;2022-08-02T14:44:57;30.40;60.50
48019;DHT22;33786;48.690;9.562;2022-08-02T14:47:24;30.50;59.90
48019;DHT22;33786;48.690;9.562;2022-08-02T14:49:50;30.60;60.20
48019;DHT22;33786;48.690;9.562;2022-08-02T14:52:18;30.70;59.20
48019;DHT22;33786;48.690;9.562;2022-08-02T14:54:45;30.80;57.60
48019;DHT22;33786;48.690;9.562;2022-08-02T14:57:12;30.90;58.50
48019;DHT22;33786;48.690;9.562;2022-08-02T14:59:39;30.70;56.10
48019;DHT22;33786;48.690;9.562;2022-08-02T15:02:08;30.60;58.30
48019;DHT22;33786;48.690;9.562;2022-08-02T15:04:38;30.60;58.60
48019;DHT22;33786;48.690;9.562;2022-08-02T15:07:09;30.90;57.50
48019;DHT22;33786;48.690;9.562;2022-08-02T15:09:35;31.00;56.20
48019;DHT22;33786;48.690;9.562;2022-08-02T15:12:05;31.10;56.20
48019;DHT22;33786;48.690;9.562;2022-08-02T15:14:32;31.20;56.50
48019;DHT22;33786;48.690;9.562;2022-08-02T15:16:59;31.20;55.90
48019;DHT22;33786;48.690;9.562;2022-08-02T15:19:26;31.40;56.70
48019;DHT22;33786;48.690;9.562;2022-08-02T15:22:13;31.30;58.10
48019;DHT22;33786;48.690;9.562;2022-08-02T15:24:44;30.60;56.00
48019;DHT22;33786;48.690;9.562;2022-08-02T15:27:11;30.90;55.90
48019;DHT22;33786;48.690;9.562;2022-08-02T15:29:40;31.00;55.50
48019;DHT22;33786;48.690;9.562;2022-08-02T15:32:07;30.70;59.70
48019;DHT22;33786;48.690;9.562;2022-08-02T15:34:34;30.60;58.60
48019;DHT22;33786;48.690;9.562;2022-08-02T15:37:00;30.60;57.50
48019;DHT22;33786;48.690;9.562;2022-08-02T15:39:27;30.80;56.60
48019;DHT22;33786;48.690;9.562;2022-08-02T15:41:54;31.00;55.50
48019;DHT22;33786;48.690;9.562;2022-08-02T15:44:21;31.00;55.80
48019;DHT22;33786;48.690;9.562;2022-08-02T15:46:47;30.60;58.20
48019;DHT22;33786;48.690;9.562;2022-08-02T15:49:14;30.40;55.50
48019;DHT22;33786;48.690;9.562;2022-08-02T15:51:41;30.60;55.70
48019;DHT22;33786;48.690;9.562;2022-08-02T15:54:08;30.70;57.00
48019;DHT22;33786;48.690;9.562;2022-08-02T15:56:34;30.50;58.30
48019;DHT22;33786;48.690;9.562;2022-08-02T15:59:01;30.50;57.40
48019;DHT22;33786;48.690;9.562;2022-08-02T16:01:28;30.60;58.30
48019;DHT22;33786;48.690;9.562;2022-08-02T16:04:04;30.60;58.40
48019;DHT22;33786;48.690;9.562;2022-08-02T16:06:31;30.60;59.80
48019;DHT22;33786;48.690;9.562;2022-08-02T16:08:58;30.70;57.90
48019;DHT22;33786;48.690;9.562;2022-08-02T16:11:24;30.70;57.90
48019;DHT22;33786;48.690;9.562;2022-08-02T16:13:51;30.50;57.30
48019;DHT22;33786;48.690;9.562;2022-08-02T16:16:23;30.60;56.20
48019;DHT22;33786;48.690;9.562;2022-08-02T16:18:50;30.50;60.30
48019;DHT22;33786;48.690;9.562;2022-08-02T16:21:17;30.50;57.80